createdAt,value
2019-03-15T00:00:04.522Z,5.80
2019-03-15T00:01:05.142Z,5.80
2019-03-15T00:02:04.803Z,5.80
2019-03-15T00:03:10.093Z,5.90
2019-03-15T00:04:04.505Z,5.90
2019-03-15T00:05:04.717Z,5.90
2019-03-15T00:06:05.190Z,5.90
2019-03-15T00:07:04.283Z,5.90
2019-03-15T00:08:04.624Z,5.90
2019-03-15T00:09:04.272Z,5.90
2019-03-15T00:10:04.445Z,5.90
2019-03-15T00:11:05.104Z,5.90
2019-03-15T00:12:04.795Z,5.90
2019-03-15T00:13:04.855Z,5.90
2019-03-15T00:14:04.315Z,5.90
2019-03-15T00:15:05.149Z,5.90
2019-03-15T00:16:05.045Z,5.90
2019-03-15T00:17:04.353Z,5.90
2019-03-15T00:18:05.117Z,5.90
2019-03-15T00:19:04.646Z,5.90
2019-03-15T00:20:04.697Z,5.90
2019-03-15T00:21:05.287Z,5.90
2019-03-15T00:22:04.285Z,5.90
2019-03-15T00:23:04.552Z,6.00
2019-03-15T00:24:04.654Z,6.00
2019-03-15T00:25:04.331Z,6.00
2019-03-15T00:26:04.285Z,6.00
2019-03-15T00:27:04.810Z,5.90
2019-03-15T00:28:05.015Z,5.90
2019-03-15T00:29:04.645Z,5.90
2019-03-15T00:30:04.846Z,5.90
2019-03-15T00:31:05.201Z,6.00
2019-03-15T00:32:04.783Z,5.90
2019-03-15T00:33:05.016Z,5.90
2019-03-15T00:34:04.981Z,5.90
2019-03-15T00:35:04.700Z,5.90
2019-03-15T00:36:04.670Z,5.90
2019-03-15T00:37:04.455Z,5.90
2019-03-15T00:38:04.681Z,5.90
2019-03-15T00:39:04.720Z,5.90
2019-03-15T00:40:04.826Z,5.90
2019-03-15T00:41:04.783Z,5.90
2019-03-15T00:42:04.653Z,5.90
2019-03-15T00:43:10.036Z,5.80
2019-03-15T00:44:04.485Z,5.90
2019-03-15T00:45:07.964Z,5.80
2019-03-15T00:46:04.294Z,5.80
2019-03-15T00:47:04.526Z,5.90
2019-03-15T00:48:05.166Z,5.80
2019-03-15T00:49:04.680Z,5.80
2019-03-15T00:50:04.390Z,5.80
2019-03-15T00:51:04.386Z,5.80
2019-03-15T00:52:05.154Z,5.80
2019-03-15T00:53:05.188Z,5.80
2019-03-15T00:54:04.529Z,5.80
2019-03-15T00:55:04.687Z,5.80
2019-03-15T00:56:04.851Z,5.80
2019-03-15T00:57:04.984Z,5.80
2019-03-15T00:58:04.215Z,5.80
2019-03-15T00:59:04.878Z,5.80
2019-03-15T01:00:04.967Z,5.80
2019-03-15T01:01:04.308Z,5.80
2019-03-15T01:02:05.064Z,5.80
2019-03-15T01:03:04.622Z,5.80
2019-03-15T01:04:05.073Z,5.80
2019-03-15T01:05:04.836Z,5.80
2019-03-15T01:06:04.959Z,5.80
2019-03-15T01:07:05.080Z,5.80
2019-03-15T01:08:04.266Z,5.80
2019-03-15T01:09:04.423Z,5.80
2019-03-15T01:10:05.038Z,5.80
2019-03-15T01:11:05.177Z,5.80
2019-03-15T01:12:04.674Z,5.80
2019-03-15T01:13:04.891Z,5.80
2019-03-15T01:14:05.133Z,5.80
2019-03-15T01:15:04.512Z,5.80
2019-03-15T01:16:04.544Z,5.80
2019-03-15T01:17:04.320Z,5.70
2019-03-15T01:18:04.463Z,5.80
2019-03-15T01:19:05.162Z,5.70
2019-03-15T01:20:04.356Z,5.70
2019-03-15T01:21:04.547Z,5.70
2019-03-15T01:22:04.601Z,5.70
2019-03-15T01:23:04.741Z,5.70
2019-03-15T01:24:04.763Z,5.70
2019-03-15T01:25:04.188Z,5.70
2019-03-15T01:26:04.499Z,5.70
2019-03-15T01:27:04.584Z,5.70
2019-03-15T01:28:04.684Z,5.70
2019-03-15T01:29:04.338Z,5.70
2019-03-15T01:30:05.081Z,5.70
2019-03-15T01:31:05.221Z,5.70
2019-03-15T01:32:04.277Z,5.70
2019-03-15T01:33:04.741Z,5.70
2019-03-15T01:34:04.373Z,5.70
2019-03-15T01:35:04.398Z,5.70
2019-03-15T01:36:04.606Z,5.70
2019-03-15T01:37:04.816Z,5.70
2019-03-15T01:38:04.833Z,5.80
2019-03-15T01:39:04.258Z,5.80
2019-03-15T01:40:04.278Z,5.80
2019-03-15T01:41:04.853Z,5.80
2019-03-15T01:42:05.050Z,5.80
2019-03-15T01:43:09.587Z,5.80
2019-03-15T01:44:04.911Z,5.80
2019-03-15T01:45:05.130Z,5.80
2019-03-15T01:46:04.564Z,5.80
2019-03-15T01:47:04.740Z,5.80
2019-03-15T01:48:05.116Z,5.80
2019-03-15T01:49:04.205Z,5.80
2019-03-15T01:50:04.318Z,5.80
2019-03-15T01:51:04.906Z,5.80
2019-03-15T01:52:05.028Z,5.80
2019-03-15T01:53:04.174Z,5.80
2019-03-15T01:54:04.794Z,5.80
2019-03-15T01:55:05.026Z,5.80
2019-03-15T01:56:04.979Z,5.80
2019-03-15T01:57:05.103Z,5.80
2019-03-15T01:58:04.281Z,5.80
2019-03-15T01:59:04.361Z,5.80
2019-03-15T02:00:04.548Z,5.80
2019-03-15T02:01:04.626Z,5.80
2019-03-15T02:02:05.336Z,5.80
2019-03-15T02:03:04.760Z,5.80
2019-03-15T02:04:05.581Z,5.80
2019-03-15T02:05:04.595Z,5.70
2019-03-15T02:06:04.994Z,5.80
2019-03-15T02:07:04.314Z,5.70
2019-03-15T02:08:04.551Z,5.70
2019-03-15T02:09:04.678Z,5.70
2019-03-15T02:10:04.399Z,5.70
2019-03-15T02:11:05.008Z,5.70
2019-03-15T02:12:04.639Z,5.70
2019-03-15T02:13:05.062Z,5.70
2019-03-15T02:14:04.521Z,5.70
2019-03-15T02:15:04.842Z,5.60
2019-03-15T02:16:04.845Z,5.70
2019-03-15T02:17:04.347Z,5.70
2019-03-15T02:18:04.440Z,5.60
2019-03-15T02:19:04.674Z,5.70
2019-03-15T02:20:05.165Z,5.60
2019-03-15T02:21:04.274Z,5.70
2019-03-15T02:22:04.406Z,5.60
2019-03-15T02:23:05.028Z,5.60
2019-03-15T02:24:05.205Z,5.60
2019-03-15T02:25:04.319Z,5.60
2019-03-15T02:26:04.301Z,5.60
2019-03-15T02:27:05.080Z,5.60
2019-03-15T02:28:05.123Z,5.60
2019-03-15T02:29:04.315Z,5.60
2019-03-15T02:30:04.748Z,5.60
2019-03-15T02:31:04.866Z,5.60
2019-03-15T02:32:04.275Z,5.60
2019-03-15T02:33:05.998Z,5.60
2019-03-15T02:34:04.974Z,5.60
2019-03-15T02:35:05.278Z,5.60
2019-03-15T02:36:04.367Z,5.60
2019-03-15T02:37:06.091Z,5.60
2019-03-15T02:38:05.144Z,5.60
2019-03-15T02:39:04.599Z,5.60
2019-03-15T02:40:05.120Z,5.60
2019-03-15T02:41:05.460Z,5.60
2019-03-15T02:42:04.333Z,5.60
2019-03-15T02:43:04.523Z,5.60
2019-03-15T02:44:04.584Z,5.60
2019-03-15T02:45:05.235Z,5.60
2019-03-15T02:46:05.255Z,5.60
2019-03-15T02:47:05.223Z,5.60
2019-03-15T02:48:04.807Z,5.60
2019-03-15T02:49:04.977Z,5.60
2019-03-15T02:50:05.199Z,5.60
2019-03-15T02:51:04.705Z,5.60
2019-03-15T02:52:04.500Z,5.60
2019-03-15T02:53:04.982Z,5.60
2019-03-15T02:54:05.202Z,5.60
2019-03-15T02:55:04.306Z,5.70
2019-03-15T02:56:04.766Z,5.70
2019-03-15T02:57:05.150Z,5.70
2019-03-15T02:58:04.339Z,5.70
2019-03-15T02:59:04.534Z,5.70
2019-03-15T03:00:04.704Z,5.70
2019-03-15T03:01:04.744Z,5.60
2019-03-15T03:02:04.860Z,5.70
2019-03-15T03:03:09.485Z,5.70
2019-03-15T03:04:04.883Z,5.70
2019-03-15T03:05:05.132Z,5.70
2019-03-15T03:06:04.771Z,5.70
2019-03-15T03:07:04.775Z,5.70
2019-03-15T03:08:04.976Z,5.70
2019-03-15T03:09:04.956Z,5.70
2019-03-15T03:10:05.133Z,5.70
2019-03-15T03:11:04.650Z,5.70
2019-03-15T03:12:04.716Z,5.70
2019-03-15T03:13:04.360Z,5.70
2019-03-15T03:14:04.440Z,5.70
2019-03-15T03:15:04.565Z,5.70
2019-03-15T03:16:04.689Z,5.70
2019-03-15T03:17:04.785Z,5.70
2019-03-15T03:18:04.954Z,5.70
2019-03-15T03:19:04.438Z,5.70
2019-03-15T03:20:05.083Z,5.70
2019-03-15T03:21:04.250Z,5.70
2019-03-15T03:22:04.858Z,5.70
2019-03-15T03:23:04.831Z,5.70
2019-03-15T03:24:04.267Z,5.70
2019-03-15T03:25:04.304Z,5.70
2019-03-15T03:26:04.925Z,5.70
2019-03-15T03:27:05.077Z,5.70
2019-03-15T03:28:05.165Z,5.70
2019-03-15T03:29:05.121Z,5.70
2019-03-15T03:30:04.483Z,5.70
2019-03-15T03:31:05.030Z,5.70
2019-03-15T03:32:05.215Z,5.70
2019-03-15T03:33:04.813Z,5.70
2019-03-15T03:34:05.004Z,5.70
2019-03-15T03:35:04.394Z,5.70
2019-03-15T03:36:05.150Z,5.70
2019-03-15T03:37:04.221Z,5.70
2019-03-15T03:38:04.941Z,5.70
2019-03-15T03:39:06.317Z,5.70
2019-03-15T03:40:05.160Z,5.70
2019-03-15T03:41:04.874Z,5.70
2019-03-15T03:42:04.863Z,5.70
2019-03-15T03:43:10.334Z,5.70
2019-03-15T03:44:04.851Z,5.70
2019-03-15T03:45:04.342Z,5.70
2019-03-15T03:46:04.499Z,5.70
2019-03-15T03:47:05.051Z,5.70
2019-03-15T03:48:04.331Z,5.70
2019-03-15T03:49:04.902Z,5.70
2019-03-15T03:50:05.186Z,5.70
2019-03-15T03:51:04.794Z,5.70
2019-03-15T03:52:04.344Z,5.70
2019-03-15T03:53:04.754Z,5.70
2019-03-15T03:54:04.957Z,5.70
2019-03-15T03:55:04.659Z,5.70
2019-03-15T03:56:04.795Z,5.70
2019-03-15T03:57:04.332Z,5.70
2019-03-15T03:58:04.527Z,5.80
2019-03-15T03:59:04.586Z,5.70
2019-03-15T04:00:05.301Z,5.70
2019-03-15T04:01:07.389Z,5.70
2019-03-15T04:02:04.288Z,5.70
2019-03-15T04:03:04.288Z,5.80
2019-03-15T04:04:04.921Z,5.70
2019-03-15T04:05:04.914Z,5.70
2019-03-15T04:06:04.738Z,5.80
2019-03-15T04:07:05.141Z,5.70
2019-03-15T04:08:04.413Z,5.70
2019-03-15T04:09:04.525Z,5.70
2019-03-15T04:10:05.626Z,5.70
2019-03-15T04:11:04.741Z,5.70
2019-03-15T04:12:04.971Z,5.70
2019-03-15T04:13:04.301Z,5.70
2019-03-15T04:14:04.405Z,5.80
2019-03-15T04:15:04.995Z,5.80
2019-03-15T04:16:04.295Z,5.80
2019-03-15T04:17:04.350Z,5.70
2019-03-15T04:18:06.582Z,5.80
2019-03-15T04:19:04.495Z,5.80
2019-03-15T04:20:04.297Z,5.80
2019-03-15T04:21:04.309Z,5.80
2019-03-15T04:22:04.568Z,5.80
2019-03-15T04:23:04.617Z,5.80
2019-03-15T04:24:04.849Z,5.80
2019-03-15T04:25:07.147Z,5.80
2019-03-15T04:26:05.122Z,5.80
2019-03-15T04:27:04.781Z,5.80
2019-03-15T04:28:04.729Z,5.80
2019-03-15T04:29:04.827Z,5.70
2019-03-15T04:30:08.410Z,5.70
2019-03-15T04:31:04.763Z,5.70
2019-03-15T04:32:05.021Z,5.70
2019-03-15T04:33:04.286Z,5.70
2019-03-15T04:34:04.593Z,5.70
2019-03-15T04:35:04.785Z,5.70
2019-03-15T04:36:05.293Z,5.60
2019-03-15T04:37:04.691Z,5.70
2019-03-15T04:38:04.267Z,5.60
2019-03-15T04:39:04.769Z,5.60
2019-03-15T04:40:04.623Z,5.60
2019-03-15T04:41:04.633Z,5.60
2019-03-15T04:42:04.683Z,5.60
2019-03-15T04:43:09.906Z,5.60
2019-03-15T04:44:04.317Z,5.60
2019-03-15T04:45:04.678Z,5.50
2019-03-15T04:46:04.336Z,5.50
2019-03-15T04:47:04.770Z,5.50
2019-03-15T04:48:04.892Z,5.50
2019-03-15T04:49:04.314Z,5.50
2019-03-15T04:50:04.539Z,5.50
2019-03-15T04:51:04.874Z,5.50
2019-03-15T04:52:04.223Z,5.50
2019-03-15T04:53:04.914Z,5.50
2019-03-15T04:54:05.618Z,5.50
2019-03-15T04:55:04.820Z,5.50
2019-03-15T04:56:04.765Z,5.50
2019-03-15T04:57:04.848Z,5.50
2019-03-15T04:58:04.409Z,5.50
2019-03-15T04:59:04.517Z,5.40
2019-03-15T05:00:04.537Z,5.40
2019-03-15T05:01:04.339Z,5.50
2019-03-15T05:02:04.498Z,5.40
2019-03-15T05:03:04.641Z,5.40
2019-03-15T05:04:04.365Z,5.40
2019-03-15T05:05:04.842Z,5.40
2019-03-15T05:06:04.474Z,5.40
2019-03-15T05:07:05.028Z,5.40
2019-03-15T05:08:04.434Z,5.40
2019-03-15T05:09:04.418Z,5.40
2019-03-15T05:10:04.388Z,5.40
2019-03-15T05:11:05.270Z,5.40
2019-03-15T05:12:04.251Z,5.40
2019-03-15T05:13:04.628Z,5.40
2019-03-15T05:14:04.548Z,5.40
2019-03-15T05:15:04.673Z,5.40
2019-03-15T05:16:04.905Z,5.40
2019-03-15T05:17:05.183Z,5.40
2019-03-15T05:18:05.150Z,5.40
2019-03-15T05:19:04.751Z,5.40
2019-03-15T05:20:04.263Z,5.30
2019-03-15T05:21:04.517Z,5.40
2019-03-15T05:22:05.061Z,5.30
2019-03-15T05:23:05.171Z,5.40
2019-03-15T05:24:04.525Z,5.30
2019-03-15T05:25:05.423Z,5.30
2019-03-15T05:26:04.809Z,5.30
2019-03-15T05:27:05.035Z,5.30
2019-03-15T05:28:04.817Z,5.30
2019-03-15T05:29:04.262Z,5.30
2019-03-15T05:30:04.462Z,5.30
2019-03-15T05:31:04.606Z,5.30
2019-03-15T05:32:04.788Z,5.30
2019-03-15T05:33:04.582Z,5.30
2019-03-15T05:34:04.436Z,5.30
2019-03-15T05:35:04.499Z,5.30
2019-03-15T05:36:04.742Z,5.30
2019-03-15T05:37:04.853Z,5.30
2019-03-15T05:38:05.126Z,5.30
2019-03-15T05:39:04.789Z,5.30
2019-03-15T05:40:04.410Z,5.30
2019-03-15T05:41:04.308Z,5.30
2019-03-15T05:42:05.054Z,5.30
2019-03-15T05:43:10.139Z,5.30
2019-03-15T05:44:04.654Z,5.30
2019-03-15T05:45:04.375Z,5.30
2019-03-15T05:46:04.438Z,5.30
2019-03-15T05:47:04.983Z,5.30
2019-03-15T05:48:05.332Z,5.30
2019-03-15T05:49:04.812Z,5.30
2019-03-15T05:50:05.096Z,5.30
2019-03-15T05:51:04.690Z,5.30
2019-03-15T05:52:05.057Z,5.30
2019-03-15T05:53:05.082Z,5.30
2019-03-15T05:54:04.244Z,5.30
2019-03-15T05:55:04.214Z,5.30
2019-03-15T05:56:04.607Z,5.30
2019-03-15T05:57:05.004Z,5.30
2019-03-15T05:58:04.587Z,5.30
2019-03-15T05:59:05.558Z,5.30
2019-03-15T06:00:04.518Z,5.30
2019-03-15T06:01:05.415Z,5.30
2019-03-15T06:02:05.270Z,5.30
2019-03-15T06:03:04.288Z,5.30
2019-03-15T06:04:04.905Z,5.30
2019-03-15T06:05:04.700Z,5.30
2019-03-15T06:06:04.596Z,5.30
2019-03-15T06:07:04.883Z,5.30
2019-03-15T06:08:05.026Z,5.30
2019-03-15T06:09:04.628Z,5.30
2019-03-15T06:10:05.147Z,5.30
2019-03-15T06:11:04.711Z,5.30
2019-03-15T06:12:04.351Z,5.30
2019-03-15T06:13:04.675Z,5.30
2019-03-15T06:14:05.298Z,5.30
2019-03-15T06:15:04.702Z,5.30
2019-03-15T06:16:04.821Z,5.30
2019-03-15T06:17:04.286Z,5.40
2019-03-15T06:18:06.727Z,5.40
2019-03-15T06:19:04.832Z,5.40
2019-03-15T06:20:06.364Z,5.40
2019-03-15T06:21:04.495Z,5.40
2019-03-15T06:22:04.607Z,5.40
2019-03-15T06:23:04.647Z,5.40
2019-03-15T06:24:04.814Z,5.40
2019-03-15T06:25:05.235Z,5.50
2019-03-15T06:26:04.733Z,5.50
2019-03-15T06:27:04.779Z,5.50
2019-03-15T06:28:05.237Z,5.50
2019-03-15T06:29:05.247Z,5.50
2019-03-15T06:30:04.752Z,5.50
2019-03-15T06:31:05.266Z,5.50
2019-03-15T06:32:04.702Z,5.50
2019-03-15T06:33:04.771Z,5.60
2019-03-15T06:34:04.563Z,5.60
2019-03-15T06:35:04.967Z,5.60
2019-03-15T06:36:04.362Z,5.60
2019-03-15T06:37:04.886Z,5.60
2019-03-15T06:38:04.416Z,5.60
2019-03-15T06:39:04.546Z,5.60
2019-03-15T06:40:04.802Z,5.60
2019-03-15T06:41:04.884Z,5.60
2019-03-15T06:42:05.184Z,5.60
2019-03-15T06:43:04.434Z,5.60
2019-03-15T06:44:04.724Z,5.70
2019-03-15T06:45:05.190Z,5.70
2019-03-15T06:46:04.470Z,5.70
2019-03-15T06:47:04.911Z,5.70
2019-03-15T06:48:04.225Z,5.70
2019-03-15T06:49:04.944Z,5.70
2019-03-15T06:50:04.332Z,5.70
2019-03-15T06:51:05.281Z,5.70
2019-03-15T06:52:05.020Z,5.70
2019-03-15T06:53:04.602Z,5.80
2019-03-15T06:54:11.125Z,5.70
2019-03-15T06:55:05.399Z,5.80
2019-03-15T06:56:04.517Z,5.80
2019-03-15T06:57:04.842Z,5.80
2019-03-15T06:58:04.735Z,5.80
2019-03-15T06:59:04.346Z,5.80
2019-03-15T07:00:04.758Z,5.80
2019-03-15T07:01:04.875Z,5.80
2019-03-15T07:02:09.993Z,5.90
2019-03-15T07:03:04.458Z,5.90
2019-03-15T07:04:04.560Z,5.90
2019-03-15T07:05:05.087Z,5.90
2019-03-15T07:06:05.073Z,5.90
2019-03-15T07:07:04.957Z,5.90
2019-03-15T07:08:04.872Z,6.00
2019-03-15T07:09:05.078Z,6.00
2019-03-15T07:10:04.472Z,6.00
2019-03-15T07:11:04.715Z,6.00
2019-03-15T07:12:09.500Z,6.00
2019-03-15T07:13:04.631Z,6.10
2019-03-15T07:14:05.027Z,6.10
2019-03-15T07:15:04.223Z,6.10
2019-03-15T07:16:04.572Z,6.10
2019-03-15T07:17:05.283Z,6.10
2019-03-15T07:18:04.655Z,6.20
2019-03-15T07:19:05.073Z,6.20
2019-03-15T07:20:04.756Z,6.20
2019-03-15T07:21:05.111Z,6.20
2019-03-15T07:22:10.260Z,6.20
2019-03-15T07:23:04.757Z,6.20
2019-03-15T07:24:04.281Z,6.30
2019-03-15T07:25:04.845Z,6.30
2019-03-15T07:26:05.175Z,6.30
2019-03-15T07:27:12.476Z,6.30
2019-03-15T07:28:05.300Z,6.30
2019-03-15T07:29:04.992Z,6.40
2019-03-15T07:30:05.123Z,6.40
2019-03-15T07:31:04.908Z,6.40
2019-03-15T07:32:05.091Z,6.40
2019-03-15T07:33:04.985Z,6.40
2019-03-15T07:34:04.484Z,6.40
2019-03-15T07:35:04.591Z,6.50
2019-03-15T07:36:04.613Z,6.50
2019-03-15T07:37:04.310Z,6.50
2019-03-15T07:38:04.444Z,6.50
2019-03-15T07:39:05.072Z,6.50
2019-03-15T07:40:04.447Z,6.60
2019-03-15T07:41:04.662Z,6.60
2019-03-15T07:42:04.665Z,6.60
2019-03-15T07:43:05.426Z,6.60
2019-03-15T07:44:05.219Z,6.70
2019-03-15T07:45:04.750Z,6.70
2019-03-15T07:46:05.250Z,6.70
2019-03-15T07:47:04.426Z,6.70
2019-03-15T07:48:04.639Z,6.70
2019-03-15T07:49:04.894Z,6.80
2019-03-15T07:50:04.328Z,6.80
2019-03-15T07:51:04.332Z,6.80
2019-03-15T07:52:04.840Z,6.80
2019-03-15T07:53:09.422Z,6.80
2019-03-15T07:54:04.979Z,6.80
2019-03-15T07:55:04.667Z,6.80
2019-03-15T07:56:04.522Z,6.90
2019-03-15T07:57:04.750Z,6.90
2019-03-15T07:58:04.276Z,6.90
2019-03-15T07:59:05.215Z,6.90
2019-03-15T08:00:04.284Z,6.90
2019-03-15T08:01:04.842Z,6.90
2019-03-15T08:02:05.182Z,6.90
2019-03-15T08:03:04.521Z,6.90
2019-03-15T08:04:16.121Z,6.90
2019-03-15T08:05:05.182Z,6.90
2019-03-15T08:06:05.068Z,6.90
2019-03-15T08:07:04.564Z,7.00
2019-03-15T08:08:05.147Z,7.00
2019-03-15T08:09:04.314Z,7.00
2019-03-15T08:10:04.674Z,7.00
2019-03-15T08:11:05.035Z,7.00
2019-03-15T08:12:04.449Z,7.00
2019-03-15T08:13:10.093Z,7.00
2019-03-15T08:14:04.469Z,7.10
2019-03-15T08:15:04.820Z,7.10
2019-03-15T08:16:04.756Z,7.10
2019-03-15T08:17:04.620Z,7.10
2019-03-15T08:18:05.157Z,7.10
2019-03-15T08:19:05.113Z,7.10
2019-03-15T08:20:04.933Z,7.10
2019-03-15T08:21:04.638Z,7.10
2019-03-15T08:22:04.403Z,7.20
2019-03-15T08:23:04.581Z,7.20
2019-03-15T08:24:04.479Z,7.20
2019-03-15T08:25:04.582Z,7.20
2019-03-15T08:26:04.279Z,7.20
2019-03-15T08:27:04.495Z,7.20
2019-03-15T08:28:04.640Z,7.30
2019-03-15T08:29:04.691Z,7.30
2019-03-15T08:30:04.543Z,7.30
2019-03-15T08:31:04.646Z,7.30
2019-03-15T08:32:04.739Z,7.30
2019-03-15T08:33:09.836Z,7.30
2019-03-15T08:34:04.827Z,7.30
2019-03-15T08:35:05.179Z,7.30
2019-03-15T08:36:04.191Z,7.30
2019-03-15T08:37:04.965Z,7.30
2019-03-15T08:38:05.464Z,7.30
2019-03-15T08:39:04.402Z,7.30
2019-03-15T08:40:04.814Z,7.40
2019-03-15T08:41:04.570Z,7.40
2019-03-15T08:42:04.990Z,7.40
2019-03-15T08:43:05.101Z,7.40
2019-03-15T08:44:05.199Z,7.40
2019-03-15T08:45:04.490Z,7.40
2019-03-15T08:46:04.349Z,7.40
2019-03-15T08:47:05.053Z,7.40
2019-03-15T08:48:05.080Z,7.40
2019-03-15T08:49:04.584Z,7.40
2019-03-15T08:50:05.078Z,7.50
2019-03-15T08:51:05.185Z,7.50
2019-03-15T08:52:04.350Z,7.50
2019-03-15T08:53:04.462Z,7.50
2019-03-15T08:54:04.900Z,7.50
2019-03-15T08:55:05.831Z,7.50
2019-03-15T08:56:04.736Z,7.50
2019-03-15T08:57:04.839Z,7.50
2019-03-15T08:58:13.650Z,7.50
2019-03-15T08:59:05.006Z,7.50
2019-03-15T09:00:04.285Z,7.50
2019-03-15T09:01:04.462Z,7.50
2019-03-15T09:02:04.684Z,7.50
2019-03-15T09:03:05.464Z,7.50
2019-03-15T09:04:04.598Z,7.60
2019-03-15T09:05:04.930Z,7.60
2019-03-15T09:06:05.052Z,7.60
2019-03-15T09:07:04.613Z,7.60
2019-03-15T09:08:04.742Z,7.60
2019-03-15T09:09:04.762Z,7.60
2019-03-15T09:10:04.273Z,7.60
2019-03-15T09:11:04.498Z,7.60
2019-03-15T09:12:04.893Z,7.60
2019-03-15T09:13:05.185Z,7.60
2019-03-15T09:14:04.310Z,7.60
2019-03-15T09:15:04.475Z,7.60
2019-03-15T09:16:04.955Z,7.60
2019-03-15T09:17:04.241Z,7.60
2019-03-15T09:18:04.565Z,7.60
2019-03-15T09:19:04.742Z,7.60
2019-03-15T09:20:04.750Z,7.60
2019-03-15T09:21:04.500Z,7.60
2019-03-15T09:22:04.592Z,7.60
2019-03-15T09:23:05.000Z,7.50
2019-03-15T09:24:04.322Z,7.50
2019-03-15T09:25:17.995Z,7.60
2019-03-15T09:26:04.886Z,7.50
2019-03-15T09:27:04.634Z,7.50
2019-03-15T09:28:05.039Z,7.50
2019-03-15T09:29:04.825Z,7.50
2019-03-15T09:30:04.342Z,7.50
2019-03-15T09:31:07.381Z,7.50
2019-03-15T09:32:05.387Z,7.50
2019-03-15T09:33:05.063Z,7.50
2019-03-15T09:34:05.020Z,7.50
2019-03-15T09:35:05.159Z,7.50
2019-03-15T09:36:04.715Z,7.50
2019-03-15T09:37:04.798Z,7.50
2019-03-15T09:38:05.003Z,7.40
2019-03-15T09:39:04.979Z,7.40
2019-03-15T09:40:04.502Z,7.50
2019-03-15T09:41:05.061Z,7.40
2019-03-15T09:42:04.638Z,7.40
2019-03-15T09:43:04.792Z,7.40
2019-03-15T09:44:04.302Z,7.40
2019-03-15T09:45:04.571Z,7.40
2019-03-15T09:46:04.320Z,7.40
2019-03-15T09:47:04.705Z,7.40
2019-03-15T09:48:05.055Z,7.40
2019-03-15T09:49:04.616Z,7.40
2019-03-15T09:50:05.259Z,7.40
2019-03-15T09:51:04.370Z,7.40
2019-03-15T09:52:04.779Z,7.40
2019-03-15T09:53:06.058Z,7.30
2019-03-15T09:54:04.926Z,7.30
2019-03-15T09:55:04.963Z,7.30
2019-03-15T09:56:04.238Z,7.30
2019-03-15T09:57:04.258Z,7.30
2019-03-15T09:58:05.047Z,7.30
2019-03-15T09:59:04.445Z,7.30
2019-03-15T10:00:04.543Z,7.30
2019-03-15T10:01:05.184Z,7.30
2019-03-15T10:02:07.656Z,7.30
2019-03-15T10:03:04.674Z,7.30
2019-03-15T10:04:04.979Z,7.30
2019-03-15T10:05:10.445Z,7.30
2019-03-15T10:06:14.597Z,7.30
2019-03-15T10:07:04.725Z,7.30
2019-03-15T10:08:05.010Z,7.30
2019-03-15T10:09:04.449Z,7.30
2019-03-15T10:10:13.180Z,7.30
2019-03-15T10:11:04.165Z,7.40
2019-03-15T10:12:04.402Z,7.40
2019-03-15T10:13:06.049Z,7.40
2019-03-15T10:14:05.157Z,7.40
2019-03-15T10:15:07.598Z,7.40
2019-03-15T10:16:04.819Z,7.40
2019-03-15T10:17:05.187Z,7.40
2019-03-15T10:18:04.168Z,7.40
2019-03-15T10:19:04.634Z,7.40
2019-03-15T10:20:04.601Z,7.50
2019-03-15T10:21:04.419Z,7.50
2019-03-15T10:22:04.659Z,7.50
2019-03-15T10:23:06.185Z,7.50
2019-03-15T10:24:04.311Z,7.50
2019-03-15T10:25:04.385Z,7.50
2019-03-15T10:26:05.131Z,7.60
2019-03-15T10:27:04.716Z,7.60
2019-03-15T10:28:04.696Z,7.60
2019-03-15T10:29:14.483Z,7.60
2019-03-15T10:30:04.960Z,7.60
2019-03-15T10:31:04.968Z,7.60
2019-03-15T10:32:04.239Z,7.60
2019-03-15T10:33:04.542Z,7.60
2019-03-15T10:34:05.866Z,7.60
2019-03-15T10:35:04.669Z,7.60
2019-03-15T10:36:04.935Z,7.60
2019-03-15T10:37:06.249Z,7.60
2019-03-15T10:38:05.216Z,7.60
2019-03-15T10:39:04.301Z,7.60
2019-03-15T10:40:04.248Z,7.60
2019-03-15T10:41:04.482Z,7.60
2019-03-15T10:42:04.886Z,7.60
2019-03-15T10:43:04.740Z,7.70
2019-03-15T10:44:05.190Z,7.60
2019-03-15T10:45:04.273Z,7.60
2019-03-15T10:46:06.228Z,7.60
2019-03-15T10:47:05.012Z,7.60
2019-03-15T10:48:04.230Z,7.60
2019-03-15T10:49:05.030Z,7.60
2019-03-15T10:50:04.954Z,7.60
2019-03-15T10:51:04.284Z,7.60
2019-03-15T10:52:04.826Z,7.60
2019-03-15T10:53:04.766Z,7.60
2019-03-15T10:54:04.217Z,7.70
2019-03-15T10:55:04.788Z,7.70
2019-03-15T10:56:04.932Z,7.70
2019-03-15T10:57:05.075Z,7.70
2019-03-15T10:58:05.263Z,7.70
2019-03-15T10:59:04.701Z,7.70
2019-03-15T11:00:05.063Z,7.70
2019-03-15T11:01:04.673Z,7.70
2019-03-15T11:02:04.857Z,7.80
2019-03-15T11:03:05.033Z,7.80
2019-03-15T11:04:05.124Z,7.80
2019-03-15T11:05:05.276Z,7.80
2019-03-15T11:06:04.293Z,7.90
2019-03-15T11:07:05.050Z,7.90
2019-03-15T11:08:04.776Z,7.90
2019-03-15T11:09:04.634Z,7.90
2019-03-15T11:10:04.704Z,8.00
2019-03-15T11:11:05.054Z,8.00
2019-03-15T11:12:04.261Z,8.00
2019-03-15T11:13:04.402Z,8.00
2019-03-15T11:14:04.534Z,8.00
2019-03-15T11:15:04.582Z,8.00
2019-03-15T11:16:04.267Z,8.00
2019-03-15T11:17:04.326Z,8.00
2019-03-15T11:18:04.376Z,8.00
2019-03-15T11:19:04.482Z,8.10
2019-03-15T11:20:05.127Z,8.10
2019-03-15T11:21:04.768Z,8.10
2019-03-15T11:22:04.551Z,8.10
2019-03-15T11:23:04.977Z,8.10
2019-03-15T11:24:04.456Z,8.10
2019-03-15T11:25:04.528Z,8.10
2019-03-15T11:26:13.276Z,8.10
2019-03-15T11:27:04.683Z,8.10
2019-03-15T11:28:04.986Z,8.10
2019-03-15T11:29:04.487Z,8.10
2019-03-15T11:30:05.005Z,8.10
2019-03-15T11:31:04.450Z,8.10
2019-03-15T11:32:04.931Z,8.10
2019-03-15T11:33:04.374Z,8.10
2019-03-15T11:34:04.767Z,8.10
2019-03-15T11:35:04.932Z,8.10
2019-03-15T11:36:04.826Z,8.10
2019-03-15T11:37:04.926Z,8.20
2019-03-15T11:38:05.125Z,8.20
2019-03-15T11:39:04.333Z,8.20
2019-03-15T11:40:04.475Z,8.20
2019-03-15T11:41:04.908Z,8.20
2019-03-15T11:42:04.429Z,8.30
2019-03-15T11:43:04.424Z,8.30
2019-03-15T11:44:04.614Z,8.30
2019-03-15T11:45:04.763Z,8.30
2019-03-15T11:46:04.306Z,8.30
2019-03-15T11:47:04.608Z,8.30
2019-03-15T11:48:04.970Z,8.30
2019-03-15T11:49:04.832Z,8.30
2019-03-15T11:50:04.200Z,8.30
2019-03-15T11:51:04.951Z,8.30
2019-03-15T11:52:04.406Z,8.30
2019-03-15T11:53:04.343Z,8.30
2019-03-15T11:54:04.788Z,8.30
2019-03-15T11:55:05.228Z,8.30
2019-03-15T11:56:04.244Z,8.30
2019-03-15T11:57:04.903Z,8.30
2019-03-15T11:58:04.329Z,8.30
2019-03-15T11:59:04.559Z,8.30
2019-03-15T12:00:04.767Z,8.30
2019-03-15T12:01:04.255Z,8.30
2019-03-15T12:02:04.551Z,8.30
2019-03-15T12:03:09.272Z,8.30
2019-03-15T12:04:04.727Z,8.30
2019-03-15T12:05:04.652Z,8.30
2019-03-15T12:06:04.288Z,8.30
2019-03-15T12:07:04.539Z,8.30
2019-03-15T12:08:04.783Z,8.30
2019-03-15T12:09:04.537Z,8.30
2019-03-15T12:10:04.746Z,8.30
2019-03-15T12:11:04.739Z,8.30
2019-03-15T12:12:04.456Z,8.30
2019-03-15T12:13:04.615Z,8.20
2019-03-15T12:14:04.561Z,8.20
2019-03-15T12:15:04.942Z,8.20
2019-03-15T12:16:04.882Z,8.20
2019-03-15T12:17:05.022Z,8.20
2019-03-15T12:18:07.960Z,8.20
2019-03-15T12:19:04.218Z,8.20
2019-03-15T12:20:04.539Z,8.10
2019-03-15T12:21:05.092Z,8.20
2019-03-15T12:22:06.375Z,8.10
2019-03-15T12:23:04.447Z,8.10
2019-03-15T12:24:04.423Z,8.10
2019-03-15T12:25:05.076Z,8.10
2019-03-15T12:26:05.204Z,8.10
2019-03-15T12:27:05.207Z,8.10
2019-03-15T12:28:04.421Z,8.10
2019-03-15T12:29:04.805Z,8.10
2019-03-15T12:30:04.306Z,8.10
2019-03-15T12:31:04.333Z,8.00
2019-03-15T12:32:04.534Z,8.00
2019-03-15T12:33:05.097Z,8.10
2019-03-15T12:34:04.412Z,8.00
2019-03-15T12:35:04.638Z,8.00
2019-03-15T12:36:04.780Z,8.00
2019-03-15T12:37:04.990Z,8.00
2019-03-15T12:38:04.295Z,8.00
2019-03-15T12:39:05.124Z,8.00
2019-03-15T12:40:05.243Z,8.00
2019-03-15T12:41:04.330Z,8.00
2019-03-15T12:42:04.810Z,8.00
2019-03-15T12:43:09.830Z,8.00
2019-03-15T12:44:04.272Z,8.00
2019-03-15T12:45:05.051Z,8.00
2019-03-15T12:46:04.598Z,8.00
2019-03-15T12:47:06.115Z,8.00
2019-03-15T12:48:05.134Z,8.10
2019-03-15T12:49:05.348Z,8.00
2019-03-15T12:50:04.342Z,8.00
2019-03-15T12:51:04.574Z,8.10
2019-03-15T12:52:04.805Z,8.10
2019-03-15T12:53:04.771Z,8.10
2019-03-15T12:54:04.370Z,8.10
2019-03-15T12:55:05.958Z,8.10
2019-03-15T12:56:04.663Z,8.10
2019-03-15T12:57:04.832Z,8.10
2019-03-15T12:58:05.234Z,8.10
2019-03-15T12:59:04.358Z,8.20
2019-03-15T13:00:04.467Z,8.20
2019-03-15T13:01:04.545Z,8.20
2019-03-15T13:02:04.768Z,8.20
2019-03-15T13:03:09.890Z,8.20
2019-03-15T13:04:04.378Z,8.20
2019-03-15T13:05:04.609Z,8.30
2019-03-15T13:06:04.675Z,8.30
2019-03-15T13:07:05.101Z,8.30
2019-03-15T13:08:05.197Z,8.30
2019-03-15T13:09:04.374Z,8.30
2019-03-15T13:10:04.730Z,8.30
2019-03-15T13:11:04.885Z,8.30
2019-03-15T13:12:04.320Z,8.30
2019-03-15T13:13:04.626Z,8.30
2019-03-15T13:14:05.179Z,8.40
2019-03-15T13:15:04.271Z,8.40
2019-03-15T13:16:04.292Z,8.40
2019-03-15T13:17:04.480Z,8.40
2019-03-15T13:18:04.818Z,8.40